Time;durP1;ratioP1;P1;durP2;ratioP2;P2;SDS_P1;SDS_P2;PMS_P1;PMS_P2;Temp;Humidity;BMP_temperature;BMP_pressure;BME280_temperature;BME280_humidity;BME280_pressure;Samples;Min_cycle;Max_cycle;Signal;HPM_P1;HPM_P2
2021/07/23 00:01:30;;;;;;;1.90;1.70;;;24.20;58.90;;;;;;6291870;28;20020;-69
2021/07/23 00:04:32;;;;;;;2.13;1.70;;;24.10;58.90;;;;;;6292352;28;20024;-69
2021/07/23 00:07:32;;;;;;;2.10;1.85;;;24.20;58.90;;;;;;6291699;28;20462;-68
2021/07/23 00:10:33;;;;;;;2.30;2.10;;;24.20;59.00;;;;;;6292512;28;20032;-68
2021/07/23 00:13:34;;;;;;;2.13;1.83;;;24.10;58.90;;;;;;6276346;28;20036;-69
2021/07/23 00:16:36;;;;;;;1.98;1.77;;;24.10;58.80;;;;;;6242249;28;20072;-69
2021/07/23 00:19:36;;;;;;;2.35;1.85;;;24.10;58.80;;;;;;6262705;28;20025;-69
2021/07/23 00:22:38;;;;;;;1.77;1.67;;;24.10;58.90;;;;;;6268751;28;20017;-69
2021/07/23 00:25:38;;;;;;;2.25;2.00;;;24.10;58.90;;;;;;6291915;28;20060;-69
2021/07/23 00:28:41;;;;;;;2.45;1.65;;;24.10;58.90;;;;;;6291412;28;20402;-69
2021/07/23 00:31:42;;;;;;;2.03;1.80;;;24.10;58.90;;;;;;6291667;28;20487;-69
2021/07/23 00:34:42;;;;;;;1.65;1.40;;;24.10;58.90;;;;;;6291239;28;20178;-69
2021/07/23 00:37:43;;;;;;;2.10;1.90;;;24.10;58.90;;;;;;6277672;28;20033;-69
2021/07/23 00:40:43;;;;;;;1.67;1.50;;;24.10;58.90;;;;;;6291695;28;20051;-69
2021/07/23 00:43:44;;;;;;;1.70;1.60;;;24.10;58.90;;;;;;6291353;28;20078;-69
2021/07/23 00:46:45;;;;;;;2.28;1.90;;;24.10;58.90;;;;;;6291972;28;20487;-69
2021/07/23 00:49:45;;;;;;;1.60;1.50;;;24.10;58.90;;;;;;6291282;28;20027;-69
2021/07/23 00:52:47;;;;;;;1.92;1.60;;;24.10;58.90;;;;;;6291599;28;20100;-69
2021/07/23 00:55:54;;;;;;;2.40;1.85;;;24.10;58.90;;;;;;6291286;28;20549;-69
2021/07/23 00:58:55;;;;;;;1.73;1.60;;;24.20;59.00;;;;;;6290838;28;20033;-69
2021/07/23 01:01:56;;;;;;;2.17;1.70;;;24.10;58.90;;;;;;6292079;28;20025;-69
2021/07/23 01:04:57;;;;;;;2.22;1.83;;;24.10;58.90;;;;;;6275591;28;20063;-69
2021/07/23 01:08:00;;;;;;;1.92;1.67;;;24.10;59.00;;;;;;6266471;28;20403;-69
2021/07/23 01:11:01;;;;;;;1.67;1.50;;;24.10;58.90;;;;;;6286856;28;20032;-68
2021/07/23 01:14:02;;;;;;;1.75;1.55;;;24.10;58.90;;;;;;6273973;28;20060;-69
2021/07/23 01:17:02;;;;;;;1.58;1.48;;;24.10;58.90;;;;;;6296391;28;20060;-69
2021/07/23 01:20:17;;;;;;;2.10;1.90;;;24.10;58.90;;;;;;6284512;28;20082;-69
2021/07/23 01:23:34;;;;;;;2.00;1.65;;;24.10;58.90;;;;;;6294986;28;20101;-69
2021/07/23 01:26:35;;;;;;;1.60;1.50;;;24.20;59.00;;;;;;6295698;28;20021;-69
2021/07/23 01:29:36;;;;;;;1.70;1.55;;;24.10;58.90;;;;;;6295889;28;20028;-69
2021/07/23 01:32:37;;;;;;;1.58;1.42;;;24.10;58.90;;;;;;6295815;28;20032;-69
2021/07/23 01:35:37;;;;;;;2.10;1.90;;;24.10;58.90;;;;;;6295634;28;20123;-69
2021/07/23 01:38:41;;;;;;;1.60;1.50;;;24.20;59.00;;;;;;6295779;28;20089;-69
2021/07/23 01:41:41;;;;;;;2.75;1.90;;;24.10;59.00;;;;;;6295514;28;20106;-69
2021/07/23 01:44:42;;;;;;;1.90;1.42;;;24.10;58.90;;;;;;6295553;28;20028;-69
2021/07/23 01:47:42;;;;;;;2.15;1.75;;;24.10;59.00;;;;;;6295660;28;20154;-69
2021/07/23 01:50:43;;;;;;;2.08;1.60;;;24.10;58.90;;;;;;6295142;28;20033;-69
2021/07/23 01:53:43;;;;;;;2.20;1.95;;;24.20;59.00;;;;;;6295152;28;20040;-69
2021/07/23 01:56:45;;;;;;;2.03;1.80;;;24.10;59.00;;;;;;6294956;28;20090;-69
2021/07/23 01:59:46;;;;;;;2.10;1.90;;;24.10;59.20;;;;;;6295092;28;20028;-69
2021/07/23 02:02:47;;;;;;;2.00;1.80;;;24.10;58.90;;;;;;6295114;28;20036;-69
2021/07/23 02:05:47;;;;;;;2.05;1.75;;;24.10;59.00;;;;;;6295383;28;20032;-69
2021/07/23 02:08:47;;;;;;;1.95;1.75;;;24.10;58.90;;;;;;6294842;28;20020;-69
2021/07/23 02:11:48;;;;;;;2.22;1.90;;;24.10;58.90;;;;;;6294717;28;20499;-69
2021/07/23 02:14:48;;;;;;;2.20;1.80;;;24.10;59.00;;;;;;6258670;28;20052;-69
2021/07/23 02:17:49;;;;;;;2.17;1.75;;;24.10;58.90;;;;;;6285628;28;20105;-69
2021/07/23 02:20:50;;;;;;;2.03;1.60;;;24.10;59.00;;;;;;6274122;28;20042;-69
2021/07/23 02:23:50;;;;;;;1.85;1.60;;;24.10;59.00;;;;;;6294141;28;20387;-68
2021/07/23 02:26:53;;;;;;;1.67;1.45;;;24.10;59.00;;;;;;6294330;28;20036;-68
2021/07/23 02:29:53;;;;;;;2.15;1.90;;;24.10;59.00;;;;;;6294873;28;20028;-69
2021/07/23 02:32:54;;;;;;;2.00;1.80;;;24.10;59.00;;;;;;6294164;28;20285;-69
2021/07/23 02:35:54;;;;;;;1.75;1.55;;;24.10;58.90;;;;;;6294455;28;20036;-69
2021/07/23 02:38:55;;;;;;;2.10;1.58;;;24.10;59.00;;;;;;6294389;28;20173;-69
2021/07/23 02:41:55;;;;;;;2.17;1.73;;;24.10;59.00;;;;;;6294068;28;20128;-69
2021/07/23 02:44:56;;;;;;;2.00;1.70;;;24.10;59.00;;;;;;6294635;28;20032;-69
2021/07/23 02:47:56;;;;;;;1.50;1.30;;;24.10;59.00;;;;;;6293918;28;20056;-69
2021/07/23 02:50:57;;;;;;;1.60;1.48;;;24.10;58.90;;;;;;6293883;28;20039;-69
2021/07/23 02:53:57;;;;;;;2.35;1.65;;;24.10;59.00;;;;;;6293540;28;20419;-69
2021/07/23 02:56:58;;;;;;;2.47;1.90;;;24.10;59.00;;;;;;6293811;28;20089;-69
2021/07/23 02:59:58;;;;;;;1.73;1.38;;;24.10;59.00;;;;;;6294365;28;20027;-69
2021/07/23 03:03:02;;;;;;;1.60;1.50;;;24.10;59.00;;;;;;6293899;28;20370;-69
2021/07/23 03:06:03;;;;;;;2.33;1.63;;;24.10;59.00;;;;;;6293688;28;20016;-69
2021/07/23 03:09:04;;;;;;;1.98;1.70;;;24.10;59.00;;;;;;6293283;28;20036;-69
2021/07/23 03:12:04;;;;;;;1.77;1.60;;;24.10;59.00;;;;;;6293892;28;20032;-69
2021/07/23 03:15:06;;;;;;;1.80;1.70;;;24.10;59.00;;;;;;6252804;28;20037;-69
2021/07/23 03:18:06;;;;;;;2.05;1.60;;;24.10;59.00;;;;;;6264361;28;20037;-69
2021/07/23 03:21:08;;;;;;;2.22;1.73;;;24.10;59.00;;;;;;6268668;28;20037;-69
2021/07/23 03:24:08;;;;;;;2.50;1.70;;;24.10;59.00;;;;;;6289284;28;20093;-69
2021/07/23 03:27:09;;;;;;;1.90;1.58;;;24.10;59.00;;;;;;6293225;28;20578;-69
2021/07/23 03:30:10;;;;;;;2.45;2.03;;;24.10;59.70;;;;;;6293063;28;20111;-69
2021/07/23 03:33:11;;;;;;;2.38;1.70;;;24.10;59.00;;;;;;6292488;28;20025;-69
2021/07/23 03:36:11;;;;;;;1.65;1.50;;;24.10;59.00;;;;;;6291662;28;20451;-69
2021/07/23 03:39:12;;;;;;;1.83;1.55;;;24.10;59.00;;;;;;6293178;28;20170;-69
2021/07/23 03:42:12;;;;;;;2.30;1.63;;;24.10;59.00;;;;;;6292404;28;20039;-69
2021/07/23 03:45:13;;;;;;;1.95;1.60;;;24.10;59.00;;;;;;6292640;28;20414;-69
2021/07/23 03:48:14;;;;;;;1.33;1.23;;;24.10;59.00;;;;;;6292356;28;20047;-69
2021/07/23 03:51:14;;;;;;;1.90;1.60;;;24.10;59.00;;;;;;6292699;28;20032;-69
2021/07/23 03:54:15;;;;;;;2.45;1.85;;;24.10;59.00;;;;;;6291759;28;20120;-69
2021/07/23 03:57:15;;;;;;;1.90;1.63;;;24.10;59.00;;;;;;6292402;28;20565;-69
2021/07/23 04:00:43;;;;;;;2.03;1.63;;;24.10;59.00;;;;;;6292221;28;20059;-69
2021/07/23 04:03:44;;;;;;;1.77;1.67;;;24.10;59.00;;;;;;6292360;28;20111;-69
2021/07/23 04:06:45;;;;;;;1.65;1.42;;;24.10;59.00;;;;;;6292068;28;20021;-69
2021/07/23 04:09:46;;;;;;;1.50;1.40;;;24.10;59.00;;;;;;6292211;28;20336;-69
2021/07/23 04:12:46;;;;;;;1.77;1.67;;;24.10;59.00;;;;;;6290027;28;20112;-69
2021/07/23 04:15:47;;;;;;;1.90;1.55;;;24.10;59.00;;;;;;6291613;28;20229;-69
2021/07/23 04:18:47;;;;;;;1.77;1.50;;;24.10;59.00;;;;;;6288932;28;20024;-69
2021/07/23 04:21:48;;;;;;;2.20;1.83;;;24.10;59.00;;;;;;6291567;28;20396;-69
2021/07/23 04:24:48;;;;;;;2.20;2.00;;;24.10;59.00;;;;;;6291878;28;20021;-69
2021/07/23 04:27:49;;;;;;;1.70;1.40;;;24.10;59.00;;;;;;6291627;28;20425;-69
2021/07/23 04:30:49;;;;;;;1.90;1.70;;;24.10;59.00;;;;;;6291565;28;20035;-69
2021/07/23 04:33:50;;;;;;;1.45;1.27;;;24.10;59.00;;;;;;6287767;28;20056;-68
2021/07/23 04:36:50;;;;;;;1.75;1.60;;;24.10;59.00;;;;;;6291556;28;20041;-69
2021/07/23 04:39:51;;;;;;;1.77;1.48;;;24.10;59.00;;;;;;6291658;28;20060;-69
2021/07/23 04:42:51;;;;;;;2.05;1.80;;;24.10;59.00;;;;;;6291594;28;20429;-69
2021/07/23 04:45:52;;;;;;;2.55;1.65;;;24.10;59.00;;;;;;6290653;28;20033;-69
2021/07/23 04:48:52;;;;;;;2.13;1.80;;;24.20;59.10;;;;;;6291342;28;20487;-69
2021/07/23 04:51:53;;;;;;;2.13;1.85;;;24.20;59.00;;;;;;6291800;28;20019;-69
2021/07/23 04:54:53;;;;;;;1.40;1.30;;;24.10;59.00;;;;;;6290701;28;20151;-69
2021/07/23 04:57:55;;;;;;;2.15;1.77;;;24.20;59.00;;;;;;6291693;28;20073;-69
2021/07/23 05:00:55;;;;;;;2.03;1.58;;;24.10;59.00;;;;;;6285753;28;20028;-69
2021/07/23 05:03:58;;;;;;;1.83;1.55;;;24.10;59.00;;;;;;6245684;28;20116;-69
2021/07/23 05:06:59;;;;;;;1.92;1.73;;;24.10;59.00;;;;;;6291554;28;20106;-69
2021/07/23 05:10:00;;;;;;;2.90;1.92;;;24.10;59.00;;;;;;6290830;28;20035;-69
2021/07/23 05:13:00;;;;;;;2.03;1.77;;;24.10;59.00;;;;;;6250840;28;20112;-69
2021/07/23 05:16:02;;;;;;;1.70;1.60;;;24.10;59.00;;;;;;6273163;28;20036;-69
2021/07/23 05:19:04;;;;;;;1.65;1.45;;;24.20;59.00;;;;;;6270150;28;20426;-69
2021/07/23 05:22:05;;;;;;;1.90;1.70;;;24.20;59.00;;;;;;6289071;28;20111;-69
2021/07/23 05:25:07;;;;;;;2.38;2.05;;;24.10;59.00;;;;;;6288439;28;20020;-69
2021/07/23 05:28:08;;;;;;;1.90;1.63;;;24.10;59.10;;;;;;6267784;28;20056;-69
2021/07/23 05:31:08;;;;;;;2.60;2.03;;;24.00;59.20;;;;;;6271792;28;20028;-69
2021/07/23 05:34:09;;;;;;;4.75;3.83;;;24.00;59.30;;;;;;6281620;28;20025;-69
2021/07/23 05:37:09;;;;;;;5.63;3.65;;;24.00;59.40;;;;;;6287694;28;20483;-70
2021/07/23 05:40:11;;;;;;;6.03;4.32;;;23.90;59.40;;;;;;6281429;28;20099;-69
2021/07/23 05:43:15;;;;;;;14.45;6.30;;;23.90;59.40;;;;;;6289624;28;20121;-69
2021/07/23 05:46:16;;;;;;;13.63;7.68;;;23.90;59.50;;;;;;6280777;28;20055;-69
2021/07/23 05:49:16;;;;;;;13.75;8.90;;;23.90;59.70;;;;;;6288481;28;20025;-69
2021/07/23 05:52:17;;;;;;;17.85;9.80;;;24.00;57.40;;;;;;6288995;28;20035;-69
2021/07/23 05:55:17;;;;;;;13.55;8.32;;;24.00;56.40;;;;;;6287640;28;20107;-69
2021/07/23 05:58:18;;;;;;;15.15;8.10;;;24.20;55.90;;;;;;6287651;28;20051;-69
2021/07/23 06:01:18;;;;;;;16.05;8.40;;;24.20;55.40;;;;;;6268335;28;20111;-69
2021/07/23 06:04:19;;;;;;;11.40;7.05;;;24.30;55.00;;;;;;6258069;28;20061;-69
2021/07/23 06:07:20;;;;;;;11.73;7.05;;;24.40;54.80;;;;;;6292852;28;20028;-69
2021/07/23 06:10:20;;;;;;;11.18;6.72;;;24.40;54.40;;;;;;6275852;28;20372;-69
2021/07/23 06:13:21;;;;;;;8.85;5.95;;;24.50;54.30;;;;;;6285808;28;20025;-69
2021/07/23 06:16:22;;;;;;;11.68;6.47;;;24.60;54.20;;;;;;6268860;28;20028;-69
2021/07/23 06:19:22;;;;;;;8.88;6.00;;;24.60;54.00;;;;;;6282380;28;20107;-69
2021/07/23 06:22:23;;;;;;;8.38;5.35;;;24.60;53.80;;;;;;6290813;28;20024;-69
2021/07/23 06:25:24;;;;;;;9.07;6.03;;;24.60;53.70;;;;;;6297492;28;20040;-69
2021/07/23 06:28:24;;;;;;;9.73;6.55;;;24.70;53.60;;;;;;6297029;28;20041;-69
2021/07/23 06:31:25;;;;;;;9.20;5.90;;;24.70;53.50;;;;;;6297178;28;20032;-69
2021/07/23 06:34:25;;;;;;;10.00;6.15;;;24.70;53.40;;;;;;6297317;28;20039;-69
2021/07/23 06:37:26;;;;;;;10.40;6.13;;;24.70;53.30;;;;;;6296793;28;20036;-69
2021/07/23 06:40:26;;;;;;;8.55;5.22;;;24.80;53.30;;;;;;6297480;28;20025;-69
2021/07/23 06:43:27;;;;;;;6.95;5.35;;;24.80;53.10;;;;;;6296438;28;20225;-69
2021/07/23 06:46:27;;;;;;;8.82;5.38;;;24.80;53.10;;;;;;6296778;28;20035;-69
2021/07/23 06:49:28;;;;;;;7.45;5.00;;;24.80;53.10;;;;;;6297101;28;20401;-69
2021/07/23 06:52:28;;;;;;;6.97;5.10;;;24.80;53.00;;;;;;6296643;28;20016;-69
2021/07/23 06:55:29;;;;;;;6.90;5.05;;;24.80;52.80;;;;;;6296865;28;20056;-69
2021/07/23 06:58:29;;;;;;;5.93;4.78;;;24.80;52.80;;;;;;6296651;28;20031;-69
2021/07/23 07:01:30;;;;;;;9.43;5.18;;;24.80;52.60;;;;;;6296691;28;20426;-69
2021/07/23 07:04:31;;;;;;;6.28;4.40;;;24.80;52.60;;;;;;6296483;28;20016;-69
2021/07/23 07:07:31;;;;;;;5.80;4.60;;;24.80;52.50;;;;;;6296183;28;20123;-69
2021/07/23 07:10:32;;;;;;;6.95;4.88;;;24.80;52.40;;;;;;6296385;28;20031;-69
2021/07/23 07:13:32;;;;;;;6.18;4.53;;;24.80;52.40;;;;;;6280983;28;20032;-69
2021/07/23 07:16:33;;;;;;;5.97;4.60;;;24.80;52.30;;;;;;6247123;28;20069;-69
2021/07/23 07:19:33;;;;;;;5.38;4.45;;;24.80;52.20;;;;;;6277789;28;20508;-69
2021/07/23 07:22:34;;;;;;;6.20;4.40;;;24.90;52.20;;;;;;6277997;28;20096;-68
2021/07/23 07:25:34;;;;;;;6.15;4.30;;;24.90;52.20;;;;;;6296090;28;20016;-69
2021/07/23 07:28:35;;;;;;;6.07;4.57;;;24.90;52.10;;;;;;6296179;28;20057;-69
2021/07/23 07:31:37;;;;;;;5.95;4.40;;;24.90;52.00;;;;;;6295911;28;20020;-69
2021/07/23 07:34:37;;;;;;;5.45;4.18;;;24.90;52.00;;;;;;6296370;28;20025;-69
2021/07/23 07:37:38;;;;;;;5.53;4.45;;;24.90;51.90;;;;;;6294369;28;20036;-69
2021/07/23 07:40:39;;;;;;;5.80;4.13;;;24.90;51.90;;;;;;6296235;28;20051;-69
2021/07/23 07:43:39;;;;;;;4.97;3.88;;;24.90;51.90;;;;;;6295621;28;20229;-69
2021/07/23 07:46:40;;;;;;;5.15;3.92;;;24.90;52.50;;;;;;6296006;28;20451;-69
2021/07/23 07:49:41;;;;;;;5.97;4.07;;;24.90;51.70;;;;;;6295312;28;20048;-69
2021/07/23 07:52:41;;;;;;;4.90;3.80;;;24.90;51.70;;;;;;6295467;28;20158;-69
2021/07/23 07:55:42;;;;;;;4.53;3.90;;;25.00;51.70;;;;;;6295342;28;20052;-69
2021/07/23 07:58:43;;;;;;;5.38;3.97;;;25.00;51.60;;;;;;6296123;28;20024;-69
2021/07/23 08:01:43;;;;;;;4.82;3.50;;;25.00;51.60;;;;;;6295774;28;20082;-69
2021/07/23 08:04:44;;;;;;;4.40;3.65;;;25.00;51.60;;;;;;6295405;28;20025;-69
2021/07/23 08:07:45;;;;;;;5.25;3.80;;;25.00;51.50;;;;;;6294647;28;20263;-69
2021/07/23 08:10:46;;;;;;;5.07;3.70;;;25.00;51.50;;;;;;6294740;28;20028;-69
2021/07/23 08:13:46;;;;;;;5.32;4.25;;;24.90;51.40;;;;;;6275469;28;20033;-69
2021/07/23 08:16:47;;;;;;;5.55;3.80;;;25.00;51.50;;;;;;6245198;28;20026;-69
2021/07/23 08:19:47;;;;;;;6.47;3.90;;;25.00;51.40;;;;;;6280506;28;20055;-69
2021/07/23 08:22:48;;;;;;;4.10;3.58;;;25.00;51.30;;;;;;6276803;28;20455;-70
2021/07/23 08:25:48;;;;;;;4.50;3.53;;;25.00;51.30;;;;;;6294441;28;20384;-69
2021/07/23 08:28:49;;;;;;;4.13;3.40;;;25.00;51.30;;;;;;6294408;28;20162;-69
2021/07/23 08:31:49;;;;;;;4.03;3.17;;;25.00;51.20;;;;;;6294445;28;20028;-69
2021/07/23 08:34:59;;;;;;;4.38;3.65;;;25.00;51.10;;;;;;6294612;28;20449;-69
2021/07/23 08:38:00;;;;;;;4.18;3.28;;;25.00;51.10;;;;;;6293980;28;20509;-69
2021/07/23 08:41:02;;;;;;;4.15;3.47;;;25.00;51.00;;;;;;6294251;28;20024;-69
2021/07/23 08:44:03;;;;;;;5.03;3.67;;;25.00;51.00;;;;;;6294463;28;20064;-69
2021/07/23 08:47:04;;;;;;;4.60;3.63;;;25.00;50.90;;;;;;6294123;28;20028;-69
2021/07/23 08:50:06;;;;;;;4.05;2.97;;;25.00;50.90;;;;;;6294124;28;20888;-69
2021/07/23 08:53:09;;;;;;;3.70;3.00;;;25.10;50.90;;;;;;6293866;28;20104;-69
2021/07/23 08:56:10;;;;;;;4.75;3.50;;;25.00;50.90;;;;;;6294522;28;20048;-69
2021/07/23 08:59:10;;;;;;;3.05;2.63;;;25.00;50.80;;;;;;6293849;28;20086;-69
2021/07/23 09:02:11;;;;;;;3.50;2.97;;;25.10;50.90;;;;;;6294221;28;20056;-69
2021/07/23 09:05:14;;;;;;;3.35;2.63;;;25.10;50.80;;;;;;6279786;28;20559;-69
2021/07/23 09:08:19;;;;;;;3.65;3.15;;;25.10;50.80;;;;;;6289666;28;20099;-69
2021/07/23 09:11:27;;;;;;;3.58;2.88;;;25.00;50.70;;;;;;6293630;28;20035;-69
2021/07/23 09:14:28;;;;;;;3.20;2.88;;;25.10;50.70;;;;;;6266953;28;20021;-69
2021/07/23 09:17:41;;;;;;;3.47;2.88;;;25.10;50.70;;;;;;6293965;28;20032;-69
2021/07/23 09:20:52;;;;;;;3.45;2.65;;;25.10;50.70;;;;;;6276841;28;20099;-70
2021/07/23 09:23:55;;;;;;;3.97;2.83;;;25.10;50.60;;;;;;6293854;28;20048;-68
2021/07/23 09:26:55;;;;;;;3.60;2.90;;;25.10;50.60;;;;;;6293549;28;20031;-69
2021/07/23 09:29:57;;;;;;;3.80;3.13;;;25.10;50.50;;;;;;6293708;28;20040;-69
2021/07/23 09:32:57;;;;;;;3.40;2.80;;;25.10;50.50;;;;;;6296803;28;20415;-69
2021/07/23 09:36:06;;;;;;;3.92;2.88;;;25.10;50.50;;;;;;6298268;28;20111;-69
2021/07/23 09:39:08;;;;;;;2.70;2.30;;;25.10;50.50;;;;;;6298461;28;20029;-69
2021/07/23 09:42:09;;;;;;;2.88;2.42;;;25.10;50.40;;;;;;6298298;28;20024;-69
2021/07/23 09:45:10;;;;;;;3.70;2.72;;;25.10;50.40;;;;;;6298340;28;20039;-69
2021/07/23 09:48:12;;;;;;;2.47;2.28;;;25.10;50.40;;;;;;6298317;28;20135;-69
2021/07/23 09:51:14;;;;;;;3.42;2.72;;;25.10;50.30;;;;;;6298135;28;20029;-68
2021/07/23 09:54:15;;;;;;;3.55;2.80;;;25.10;50.40;;;;;;6296670;28;20098;-69
2021/07/23 09:57:22;;;;;;;2.72;2.20;;;25.10;50.30;;;;;;6296731;28;20024;-69
2021/07/23 10:00:23;;;;;;;3.13;2.72;;;25.10;50.40;;;;;;6297709;28;20048;-69
2021/07/23 10:03:27;;;;;;;2.83;2.53;;;25.10;50.30;;;;;;6297553;28;20099;-69
2021/07/23 10:06:33;;;;;;;2.72;2.40;;;25.10;50.20;;;;;;6297545;28;20111;-69
2021/07/23 10:09:37;;;;;;;3.28;2.47;;;25.10;50.20;;;;;;6297932;28;20092;-69
2021/07/23 10:12:41;;;;;;;3.33;2.70;;;25.10;50.10;;;;;;6297207;28;20050;-69
2021/07/23 10:15:42;;;;;;;3.33;2.80;;;25.10;50.20;;;;;;6253520;28;20368;-69
2021/07/23 10:18:43;;;;;;;3.97;2.67;;;25.10;50.10;;;;;;6287568;28;20024;-69
2021/07/23 10:21:43;;;;;;;2.67;2.28;;;25.10;50.10;;;;;;6283245;28;20098;-69
2021/07/23 10:24:44;;;;;;;2.53;2.30;;;25.10;50.00;;;;;;6297337;28;20471;-69
2021/07/23 10:27:45;;;;;;;2.53;2.33;;;25.10;50.00;;;;;;6297053;28;20025;-70
2021/07/23 10:30:46;;;;;;;3.08;2.45;;;25.10;50.00;;;;;;6296865;28;20383;-69
2021/07/23 10:33:49;;;;;;;3.30;2.45;;;25.10;50.00;;;;;;6297572;28;20290;-69
2021/07/23 10:36:50;;;;;;;3.15;2.28;;;25.10;50.00;;;;;;6296854;28;20029;-69
2021/07/23 10:40:12;;;;;;;3.40;2.35;;;25.10;49.90;;;;;;6297166;28;20029;-68
2021/07/23 10:43:36;;;;;;;2.22;2.00;;;25.10;49.90;;;;;;6296212;28;20523;-69
2021/07/23 10:46:42;;;;;;;2.80;2.25;;;25.10;49.80;;;;;;6295490;28;20033;-69
2021/07/23 10:49:46;;;;;;;2.50;2.10;;;25.10;49.80;;;;;;6296676;28;20021;-69
2021/07/23 10:52:47;;;;;;;2.80;2.53;;;25.10;49.80;;;;;;6297038;28;20020;-69
2021/07/23 10:55:47;;;;;;;2.50;2.22;;;25.10;49.80;;;;;;6296314;28;20265;-69
2021/07/23 10:58:48;;;;;;;2.47;2.00;;;25.20;49.80;;;;;;6295226;28;20434;-69
2021/07/23 11:01:50;;;;;;;2.40;2.20;;;25.10;49.70;;;;;;6296272;28;20031;-69
2021/07/23 11:04:51;;;;;;;2.42;2.15;;;25.20;49.70;;;;;;6296713;28;20464;-69
2021/07/23 11:07:56;;;;;;;2.38;2.17;;;25.10;49.70;;;;;;6295492;28;20028;-69
2021/07/23 11:10:56;;;;;;;2.33;2.05;;;25.10;49.60;;;;;;6296087;28;20047;-70
2021/07/23 11:14:14;;;;;;;2.05;1.85;;;25.10;49.60;;;;;;6274055;28;20492;-69
2021/07/23 11:17:14;;;;;;;2.22;1.85;;;25.10;49.70;;;;;;6251443;28;20395;-69
2021/07/23 11:20:21;;;;;;;2.45;2.10;;;25.10;49.60;;;;;;6273419;28;20116;-69
2021/07/23 11:23:30;;;;;;;3.20;2.00;;;25.10;49.60;;;;;;6282279;28;20115;-69
2021/07/23 11:26:31;;;;;;;2.08;1.88;;;25.10;50.30;;;;;;6296292;28;20035;-69
2021/07/23 11:29:38;;;;;;;2.90;2.10;;;25.20;49.60;;;;;;6295699;28;20355;-68
2021/07/23 11:32:59;;;;;;;2.13;1.90;;;25.20;49.60;;;;;;6295480;28;20020;-69
2021/07/23 11:36:01;;;;;;;2.30;1.90;;;25.20;49.50;;;;;;6295895;28;20078;-69
2021/07/23 11:39:07;;;;;;;3.72;2.25;;;25.20;49.40;;;;;;6295721;28;20033;-69
2021/07/23 11:42:07;;;;;;;2.15;1.95;;;25.20;49.50;;;;;;6295785;28;20098;-69
2021/07/23 11:45:13;;;;;;;2.50;2.15;;;25.20;49.50;;;;;;6295235;28;20043;-69
2021/07/23 11:48:15;;;;;;;2.17;1.88;;;25.20;49.50;;;;;;6295383;28;20377;-70
2021/07/23 11:51:16;;;;;;;2.70;2.10;;;25.20;49.40;;;;;;6294175;28;20079;-68
2021/07/23 11:54:20;;;;;;;2.42;2.03;;;25.10;49.40;;;;;;6294396;28;20061;-69
2021/07/23 11:57:21;;;;;;;2.85;2.33;;;25.20;49.40;;;;;;6293531;28;20067;-69
2021/07/23 12:00:24;;;;;;;2.53;2.10;;;25.20;49.30;;;;;;6293835;28;20028;-69
2021/07/23 12:03:26;;;;;;;2.15;1.95;;;25.20;49.40;;;;;;6295534;28;20395;-69
2021/07/23 12:06:29;;;;;;;2.78;1.98;;;25.20;49.30;;;;;;6295233;28;20017;-69
2021/07/23 12:09:30;;;;;;;2.60;2.13;;;25.20;49.30;;;;;;6295414;28;20024;-69
2021/07/23 12:12:31;;;;;;;1.92;1.80;;;25.20;49.30;;;;;;6294705;28;20070;-69
2021/07/23 12:15:43;;;;;;;2.25;1.75;;;25.20;49.20;;;;;;6290176;28;20029;-69
2021/07/23 12:19:10;;;;;;;2.15;1.80;;;25.20;49.20;;;;;;6290423;28;20017;-69
2021/07/23 12:22:15;;;;;;;2.00;1.55;;;25.20;49.20;;;;;;6294532;28;20500;-69
2021/07/23 12:25:17;;;;;;;2.03;1.77;;;25.20;49.20;;;;;;6293997;28;20024;-69
2021/07/23 12:28:18;;;;;;;2.05;1.85;;;25.20;49.20;;;;;;6294513;28;20028;-69
2021/07/23 12:31:18;;;;;;;3.40;1.75;;;25.20;49.20;;;;;;6294635;28;20491;-69
2021/07/23 12:34:20;;;;;;;1.75;1.63;;;25.20;49.20;;;;;;6294111;28;20040;-69
2021/07/23 12:37:20;;;;;;;1.83;1.67;;;25.20;49.10;;;;;;6294416;28;20086;-68
2021/07/23 12:40:48;;;;;;;2.70;1.70;;;25.20;49.10;;;;;;6294086;28;20028;-69
2021/07/23 12:44:15;;;;;;;2.42;1.50;;;25.20;49.10;;;;;;6293801;28;20031;-69
2021/07/23 12:47:26;;;;;;;2.55;1.98;;;25.20;49.10;;;;;;6292540;28;20028;-69
2021/07/23 12:50:27;;;;;;;1.95;1.58;;;25.20;49.10;;;;;;6294183;28;20020;-69
2021/07/23 12:53:28;;;;;;;2.28;1.55;;;25.20;49.10;;;;;;6294015;28;20702;-69
2021/07/23 12:56:33;;;;;;;1.80;1.60;;;25.20;49.00;;;;;;6294278;28;20484;-69
2021/07/23 12:59:33;;;;;;;2.20;1.90;;;25.20;49.00;;;;;;6294061;28;20020;-68
2021/07/23 13:02:34;;;;;;;2.45;1.70;;;25.20;49.00;;;;;;6293821;28;20032;-69
2021/07/23 13:05:34;;;;;;;1.90;1.70;;;25.20;49.00;;;;;;6279072;28;20056;-69
2021/07/23 13:08:38;;;;;;;1.60;1.50;;;25.20;49.00;;;;;;6289167;28;20036;-68
2021/07/23 13:11:38;;;;;;;2.45;1.73;;;25.20;48.90;;;;;;6293728;28;20108;-69
2021/07/23 13:14:39;;;;;;;2.22;1.88;;;25.20;49.00;;;;;;6266005;28;20101;-68
2021/07/23 13:17:40;;;;;;;2.00;1.50;;;25.20;48.90;;;;;;6292994;28;20020;-69
2021/07/23 13:20:41;;;;;;;2.10;1.80;;;25.20;48.80;;;;;;6277243;28;20035;-69
2021/07/23 13:23:41;;;;;;;1.80;1.60;;;25.20;48.90;;;;;;6293439;28;20021;-69
2021/07/23 13:26:42;;;;;;;1.65;1.55;;;25.20;48.80;;;;;;6293849;28;20113;-69
2021/07/23 13:29:43;;;;;;;1.85;1.67;;;25.20;48.90;;;;;;6294169;28;20025;-68
2021/07/23 13:32:45;;;;;;;2.13;1.70;;;25.20;48.80;;;;;;6293761;28;20070;-69
2021/07/23 13:35:50;;;;;;;2.13;1.70;;;25.20;48.80;;;;;;6294078;28;20075;-68
2021/07/23 13:39:07;;;;;;;1.85;1.63;;;25.20;48.80;;;;;;6293785;28;20024;-69
2021/07/23 13:42:10;;;;;;;1.88;1.55;;;25.20;48.80;;;;;;6293730;28;20830;-69
2021/07/23 13:45:13;;;;;;;2.13;1.65;;;25.20;48.80;;;;;;6293466;28;20668;-69
2021/07/23 13:48:15;;;;;;;1.77;1.50;;;25.20;48.80;;;;;;6293550;28;20103;-69
2021/07/23 13:51:15;;;;;;;1.77;1.50;;;25.20;48.70;;;;;;6293609;28;20060;-69
2021/07/23 13:54:16;;;;;;;1.50;1.40;;;25.20;48.70;;;;;;6293329;28;20410;-69
2021/07/23 13:57:16;;;;;;;1.70;1.60;;;25.20;48.70;;;;;;6292926;28;20032;-69
2021/07/23 14:00:17;;;;;;;1.77;1.50;;;25.20;48.70;;;;;;6293367;28;20020;-69
2021/07/23 14:03:17;;;;;;;1.90;1.70;;;25.20;48.70;;;;;;6293066;28;20059;-69
2021/07/23 14:06:18;;;;;;;2.13;1.45;;;25.20;48.70;;;;;;6293158;28;20029;-69
2021/07/23 14:09:18;;;;;;;1.58;1.48;;;25.20;48.70;;;;;;6293154;28;20104;-69
2021/07/23 14:12:19;;;;;;;2.40;1.52;;;25.20;48.70;;;;;;6293216;28;20025;-69
2021/07/23 14:15:20;;;;;;;1.60;1.50;;;25.20;48.60;;;;;;6257659;28;20056;-69
2021/07/23 14:18:21;;;;;;;2.13;1.80;;;25.20;49.30;;;;;;6281472;28;20044;-69
2021/07/23 14:21:21;;;;;;;1.50;1.40;;;25.20;48.70;;;;;;6275412;28;20113;-69
2021/07/23 14:24:22;;;;;;;2.10;1.85;;;25.30;48.60;;;;;;6297522;28;20048;-69
2021/07/23 14:27:22;;;;;;;1.52;1.40;;;25.30;48.70;;;;;;6297359;28;20060;-69
2021/07/23 14:30:23;;;;;;;1.73;1.35;;;25.20;48.60;;;;;;6297204;28;20021;-69
2021/07/23 14:33:23;;;;;;;1.50;1.40;;;25.20;48.50;;;;;;6297206;28;20074;-69
2021/07/23 14:36:24;;;;;;;2.05;1.35;;;25.20;48.50;;;;;;6296967;28;20036;-69
2021/07/23 14:39:25;;;;;;;1.50;1.40;;;25.20;48.50;;;;;;6297241;28;20111;-69
2021/07/23 14:42:25;;;;;;;1.73;1.48;;;25.20;48.50;;;;;;6296835;28;20460;-69
2021/07/23 14:45:26;;;;;;;2.22;1.70;;;25.30;48.50;;;;;;6257337;28;20025;-69
2021/07/23 14:48:27;;;;;;;1.60;1.50;;;25.30;48.50;;;;;;6284657;28;20066;-69
2021/07/23 14:51:28;;;;;;;2.05;1.80;;;25.30;48.50;;;;;;6277959;28;20033;-69
2021/07/23 14:54:28;;;;;;;1.90;1.58;;;25.30;48.50;;;;;;6276611;28;20041;-69
2021/07/23 14:57:30;;;;;;;3.83;1.70;;;25.30;48.50;;;;;;6283072;28;20129;-69
2021/07/23 15:00:30;;;;;;;3.15;1.83;;;25.30;48.50;;;;;;6271801;28;20450;-69
2021/07/23 15:03:31;;;;;;;4.45;2.67;;;25.20;48.40;;;;;;6271479;28;20021;-69
2021/07/23 15:06:31;;;;;;;4.10;2.90;;;25.30;48.50;;;;;;6267840;28;20422;-69
2021/07/23 15:09:32;;;;;;;5.00;3.20;;;25.30;48.40;;;;;;6284958;28;20024;-69
2021/07/23 15:12:32;;;;;;;4.47;2.80;;;25.30;48.40;;;;;;6274099;28;20021;-69
2021/07/23 15:15:33;;;;;;;6.47;2.72;;;25.30;48.40;;;;;;6246304;28;20037;-69
2021/07/23 15:18:34;;;;;;;3.28;2.60;;;25.30;48.30;;;;;;6282475;28;20023;-69
2021/07/23 15:21:39;;;;;;;4.78;2.55;;;25.30;48.30;;;;;;6291783;28;20028;-69
2021/07/23 15:24:39;;;;;;;3.30;2.85;;;25.30;48.30;;;;;;6287352;28;20475;-69
2021/07/23 15:27:40;;;;;;;4.53;2.70;;;25.30;48.20;;;;;;6283094;28;20033;-69
2021/07/23 15:30:42;;;;;;;8.48;3.60;;;25.30;48.20;;;;;;6293011;28;20107;-69
2021/07/23 15:33:43;;;;;;;3.92;3.00;;;25.30;48.20;;;;;;6282177;28;20029;-68
2021/07/23 15:36:44;;;;;;;4.22;2.90;;;25.30;48.10;;;;;;6278609;28;20047;-69
2021/07/23 15:39:44;;;;;;;5.07;2.75;;;25.30;48.20;;;;;;6268652;28;20052;-69
2021/07/23 15:42:45;;;;;;;3.97;2.80;;;25.30;48.10;;;;;;6274387;28;20029;-69
2021/07/23 15:45:45;;;;;;;4.32;2.83;;;25.30;48.20;;;;;;6291428;28;20032;-69